Time;durP1;ratioP1;P1;durP2;ratioP2;P2;SDS_P1;SDS_P2;PMS_P1;PMS_P2;Temp;Humidity;BMP_temperature;BMP_pressure;BME280_temperature;BME280_humidity;BME280_pressure;Samples;Min_cycle;Max_cycle;Signal;HPM_P1;HPM_P2
2023/01/26 00:01:08;;;;;;;3.95;2.38;;;;;;;3.55;75.56;101551.69;5057726;28;20061;-46
2023/01/26 00:03:35;;;;;;;4.43;1.20;;;;;;;3.50;76.14;101555.72;5057499;28;20044;-46
2023/01/26 00:06:04;;;;;;;3.13;0.55;;;;;;;3.56;75.75;101545.78;5057171;28;20072;-46
2023/01/26 00:08:40;;;;;;;5.00;1.95;;;;;;;3.55;75.91;101544.00;5058119;28;20164;-46
2023/01/26 00:11:10;;;;;;;8.13;0.90;;;;;;;3.50;76.24;101548.03;5060878;28;20053;-46
2023/01/26 00:13:37;;;;;;;4.40;1.80;;;;;;;3.46;76.15;101543.53;5060840;28;20130;-46
2023/01/26 00:16:08;;;;;;;15.13;2.45;;;;;;;3.49;75.32;101551.41;5057837;28;20053;-44
2023/01/26 00:18:36;;;;;;;6.90;1.83;;;;;;;3.46;75.84;101558.91;5055598;28;20103;-47
2023/01/26 00:21:04;;;;;;;3.35;1.83;;;;;;;3.43;76.53;101548.50;5056965;28;20045;-48
2023/01/26 00:23:32;;;;;;;6.07;0.90;;;;;;;3.41;75.69;101558.66;5058568;28;20052;-48
2023/01/26 00:25:59;;;;;;;4.40;2.45;;;;;;;3.36;76.08;101547.31;5059828;28;20102;-45
2023/01/26 00:28:26;;;;;;;6.45;2.05;;;;;;;3.38;75.56;101544.84;5057061;28;20049;-46
2023/01/26 00:31:01;;;;;;;10.88;2.47;;;;;;;3.30;76.15;101537.66;5058630;28;20045;-47
2023/01/26 00:33:28;;;;;;;4.20;2.30;;;;;;;3.27;75.87;101542.59;5050181;28;20129;-48
2023/01/26 00:35:55;;;;;;;8.02;1.38;;;;;;;3.25;75.76;101539.09;5058845;28;20429;-45
2023/01/26 00:38:22;;;;;;;6.45;2.75;;;;;;;3.22;75.64;101544.06;5057709;28;20083;-45
2023/01/26 00:40:48;;;;;;;8.32;2.85;;;;;;;3.22;76.09;101544.06;5056496;28;20052;-46
2023/01/26 00:43:15;;;;;;;3.95;2.72;;;;;;;3.19;75.43;101542.22;5057440;28;20049;-45
2023/01/26 00:45:42;;;;;;;5.53;0.73;;;;;;;3.19;76.08;101549.91;5057479;28;20082;-44
2023/01/26 00:48:09;;;;;;;3.72;0.93;;;;;;;3.15;75.73;101550.56;5038652;28;20046;-46
2023/01/26 00:50:35;;;;;;;4.22;1.92;;;;;;;3.15;76.48;101552.22;5023403;28;20145;-46
2023/01/26 00:53:02;;;;;;;3.70;1.40;;;;;;;3.12;75.59;101552.06;5027191;28;20545;-47
2023/01/26 00:55:32;;;;;;;5.90;2.33;;;;;;;3.10;75.84;101553.66;5041338;28;20102;-48
2023/01/26 00:58:02;;;;;;;4.93;1.50;;;;;;;3.07;75.59;101555.25;5046324;28;20451;-46
2023/01/26 01:00:30;;;;;;;6.57;2.00;;;;;;;3.05;75.99;101556.88;5044349;28;20045;-48
2023/01/26 01:02:58;;;;;;;8.88;3.00;;;;;;;3.01;76.38;101554.91;5046324;28;20043;-46
2023/01/26 01:05:27;;;;;;;10.63;2.53;;;;;;;2.96;76.12;101551.25;5041477;28;20045;-46
2023/01/26 01:07:54;;;;;;;6.38;2.17;;;;;;;2.95;76.52;101555.47;5041156;28;20668;-46
2023/01/26 01:10:21;;;;;;;8.48;2.90;;;;;;;2.91;76.18;101551.00;5042198;28;20175;-47
2023/01/26 01:12:48;;;;;;;4.40;2.05;;;;;;;2.88;76.06;101549.97;5054185;28;20065;-47
2023/01/26 01:15:14;;;;;;;4.35;2.50;;;;;;;2.90;75.87;101556.06;5041664;28;20076;-45
2023/01/26 01:17:41;;;;;;;8.55;2.28;;;;;;;2.91;76.84;101550.13;5040097;28;20045;-49
2023/01/26 01:20:09;;;;;;;4.25;2.55;;;;;;;2.89;76.69;101554.28;5048719;28;20098;-47
2023/01/26 01:22:38;;;;;;;2.85;2.08;;;;;;;2.92;76.35;101562.13;5044104;28;20128;-48
2023/01/26 01:25:07;;;;;;;3.67;2.03;;;;;;;2.91;75.77;101562.94;5037851;28;20650;-46
2023/01/26 01:27:35;;;;;;;5.82;1.95;;;;;;;2.88;76.16;101570.44;5042617;28;20134;-47
2023/01/26 01:30:06;;;;;;;3.67;2.28;;;;;;;2.89;75.64;101560.28;5044225;28;20045;-46
2023/01/26 01:32:35;;;;;;;3.53;2.25;;;;;;;2.87;75.71;101561.88;5041094;28;20049;-47
2023/01/26 01:35:04;;;;;;;5.22;1.10;;;;;;;2.82;75.64;101561.66;5040456;28;20587;-47
2023/01/26 01:37:32;;;;;;;1.45;1.33;;;;;;;2.80;76.76;101550.44;5044882;28;20045;-46
2023/01/26 01:40:01;;;;;;;6.07;1.05;;;;;;;2.80;75.92;101560.66;5037956;28;20484;-46
2023/01/26 01:42:29;;;;;;;4.00;1.70;;;;;;;2.78;76.43;101557.16;5039051;28;20077;-48
2023/01/26 01:50:54;;;;;;;5.00;0.63;;;;;;;2.74;76.07;101567.16;5051438;27;20406;-46
2023/01/26 01:53:26;;;;;;;2.55;0.90;;;;;;;2.76;76.35;101560.41;5015361;28;20101;-47
2023/01/26 01:55:58;;;;;;;7.50;1.35;;;;;;;2.70;75.88;101563.53;5013121;28;20066;-46
2023/01/26 01:58:28;;;;;;;1.73;1.30;;;;;;;2.68;76.12;101562.56;4993135;28;20575;-46
2023/01/26 02:00:55;;;;;;;3.78;1.55;;;;;;;2.68;76.81;101562.56;4994747;28;20101;-45
2023/01/26 02:03:21;;;;;;;6.45;1.42;;;;;;;2.63;76.17;101564.00;4997712;28;20401;-46
2023/01/26 02:08:33;;;;;;;8.38;1.83;;;;;;;2.64;76.98;101552.97;5052081;28;20414;-46
2023/01/26 02:11:06;;;;;;;4.07;1.50;;;;;;;2.59;77.05;101549.25;5078969;28;20060;-46
2023/01/26 02:13:34;;;;;;;2.90;0.77;;;;;;;2.56;75.75;101557.66;5076028;28;20584;-50
2023/01/26 02:16:00;;;;;;;3.55;0.55;;;;;;;2.52;76.29;101554.06;5073713;28;20103;-47
2023/01/26 02:18:27;;;;;;;2.63;0.98;;;;;;;2.51;77.40;101560.00;5071508;28;20051;-48
2023/01/26 02:20:58;;;;;;;3.45;0.77;;;;;;;2.53;76.65;101560.94;5058450;28;20500;-45
2023/01/26 02:26:20;;;;;;;2.50;0.73;;;;;;;2.56;76.77;101568.78;4998613;28;20733;-46
2023/01/26 02:28:47;;;;;;;3.55;1.45;;;;;;;2.63;76.72;101571.69;4998663;28;20042;-48
2023/01/26 02:31:15;;;;;;;2.25;1.48;;;;;;;2.64;76.18;101573.44;4995920;28;20042;-44
2023/01/26 02:33:43;;;;;;;3.38;1.80;;;;;;;2.63;77.10;101577.66;4995572;28;20046;-46
2023/01/26 02:36:18;;;;;;;2.88;1.45;;;;;;;2.65;76.07;101570.06;4998692;28;20654;-49
2023/01/26 02:38:54;;;;;;;6.68;1.85;;;;;;;2.66;76.75;101571.84;4998553;28;20105;-48
2023/01/26 02:44:11;;;;;;;6.07;1.80;;;;;;;2.57;76.28;101573.09;4990812;28;20521;-47
2023/01/26 02:46:37;;;;;;;3.25;2.00;;;;;;;2.60;76.87;101572.38;4993600;28;20047;-46
2023/01/26 02:51:51;;;;;;;5.78;1.77;;;;;;;2.54;76.47;101572.91;4995970;28;20112;-46
2023/01/26 02:57:04;;;;;;;7.35;2.35;;;;;;;2.55;77.09;101574.72;4988705;28;20137;-45
2023/01/26 02:59:31;;;;;;;6.88;2.22;;;;;;;2.53;77.45;101576.28;4980500;28;20129;-45
2023/01/26 03:01:57;;;;;;;2.58;1.38;;;;;;;2.47;77.06;101575.97;4982418;28;20545;-47
2023/01/26 03:04:24;;;;;;;3.47;1.75;;;;;;;2.53;77.56;101573.72;4980459;28;20113;-46
2023/01/26 03:06:51;;;;;;;2.10;1.90;;;;;;;2.53;76.60;101566.06;4978644;28;20499;-46
2023/01/26 03:09:18;;;;;;;3.88;1.77;;;;;;;2.51;76.72;101567.66;4979109;28;20137;-48
2023/01/26 03:11:44;;;;;;;5.25;1.60;;;;;;;2.51;77.45;101570.22;4981075;28;20050;-47
2023/01/26 03:14:13;;;;;;;2.47;1.23;;;;;;;2.51;77.34;101583.00;4979630;28;20050;-46
2023/01/26 03:16:40;;;;;;;2.78;1.25;;;;;;;2.53;78.03;101576.28;4979382;28;20053;-45
2023/01/26 03:27:39;;;;;;;2.47;2.30;;;;;;;2.47;77.29;101586.19;4980866;28;20699;-46
2023/01/26 03:30:06;;;;;;;7.22;1.60;;;;;;;2.49;78.27;101582.03;4983071;28;20054;-46
2023/01/26 03:32:33;;;;;;;1.52;0.90;;;;;;;2.51;77.19;101583.00;4981355;28;20054;-47
2023/01/26 03:35:00;;;;;;;1.48;1.20;;;;;;;2.49;77.56;101579.47;4981223;28;20516;-48
2023/01/26 03:37:35;;;;;;;2.17;1.98;;;;;;;2.48;77.21;101582.84;4969455;28;20047;-46
2023/01/26 03:56:43;;;;;;;6.72;1.98;;;;;;;2.41;78.12;101590.97;4968004;28;20177;-47
2023/01/26 03:59:13;;;;;;;3.58;1.65;;;;;;;2.45;77.93;101592.88;4961924;28;20054;-47
2023/01/26 04:10:04;;;;;;;4.65;1.70;;;;;;;2.41;77.71;101580.72;4963520;28;20058;-48
2023/01/26 04:12:30;;;;;;;2.30;2.13;;;;;;;2.38;78.18;101585.66;4967239;28;20694;-45
2023/01/26 04:23:18;;;;;;;1.55;1.33;;;;;;;2.54;78.65;101606.19;4969188;28;20085;-47
2023/01/26 04:25:47;;;;;;;4.03;1.48;;;;;;;2.60;77.82;101602.22;4967239;28;20047;-46
2023/01/26 04:28:14;;;;;;;2.10;1.95;;;;;;;2.63;77.38;101602.38;4961106;28;20134;-45
2023/01/26 04:30:41;;;;;;;2.33;1.77;;;;;;;2.70;78.13;101604.47;4966411;28;20109;-46
2023/01/26 04:33:07;;;;;;;3.40;1.80;;;;;;;2.72;77.28;101602.88;4966934;28;20076;-46
2023/01/26 04:35:34;;;;;;;6.72;1.58;;;;;;;2.70;77.44;101609.56;4967987;28;20094;-47
2023/01/26 04:38:01;;;;;;;3.28;2.03;;;;;;;2.77;78.00;101611.69;4969878;28;20043;-46
2023/01/26 04:40:27;;;;;;;4.20;1.70;;;;;;;2.77;77.55;101608.25;4967110;28;20051;-45
2023/01/26 04:42:54;;;;;;;6.85;1.33;;;;;;;2.77;77.64;101624.47;4967860;28;20043;-46
2023/01/26 04:45:20;;;;;;;1.05;0.95;;;;;;;2.82;76.83;101619.63;4967053;28;20101;-47
2023/01/26 04:47:47;;;;;;;5.63;2.33;;;;;;;2.88;77.04;101629.31;4966400;28;20427;-46
2023/01/26 04:50:14;;;;;;;3.80;1.23;;;;;;;2.88;76.93;101629.31;4967953;28;20051;-46
2023/01/26 04:52:41;;;;;;;6.32;1.13;;;;;;;2.89;76.53;101625.94;4965385;28;20587;-47
2023/01/26 04:55:08;;;;;;;2.88;1.83;;;;;;;2.93;77.36;101622.75;4966694;28;20078;-47
2023/01/26 04:57:34;;;;;;;1.15;1.05;;;;;;;2.89;76.75;101616.59;4967088;28;20150;-47
2023/01/26 05:00:01;;;;;;;4.55;1.45;;;;;;;2.93;77.34;101607.38;4967434;28;20059;-49
2023/01/26 05:02:28;;;;;;;2.92;1.30;;;;;;;2.95;76.56;101610.94;4967356;28;20463;-46
2023/01/26 05:04:54;;;;;;;3.83;1.35;;;;;;;2.95;77.19;101605.81;4967912;28;20047;-48
2023/01/26 05:07:21;;;;;;;4.78;1.70;;;;;;;2.93;76.53;101599.72;4965938;28;20047;-48
2023/01/26 05:09:48;;;;;;;7.65;1.95;;;;;;;2.93;77.42;101602.28;4967231;28;20047;-47
2023/01/26 05:15:01;;;;;;;5.40;1.60;;;;;;;2.88;77.57;101603.72;4965695;28;20037;-47
2023/01/26 05:17:28;;;;;;;3.33;1.73;;;;;;;2.85;76.86;101588.19;4966483;28;20135;-47
2023/01/26 05:19:54;;;;;;;3.65;1.67;;;;;;;2.88;76.53;101607.16;4961897;28;20046;-46
2023/01/26 05:22:21;;;;;;;1.75;1.55;;;;;;;2.87;76.78;101607.06;4963296;28;20066;-45
2023/01/26 05:24:47;;;;;;;3.35;1.88;;;;;;;2.77;78.44;101606.56;4970675;28;20042;-45
2023/01/26 05:27:21;;;;;;;7.30;1.27;;;;;;;2.86;77.24;101606.19;4967308;28;20455;-45
2023/01/26 05:29:49;;;;;;;1.42;1.23;;;;;;;2.89;76.91;101616.59;4965325;28;20122;-46
2023/01/26 05:32:17;;;;;;;8.38;1.80;;;;;;;2.87;77.97;101619.88;4967872;28;20046;-45
2023/01/26 05:34:44;;;;;;;4.97;1.58;;;;;;;2.88;77.82;101609.72;4966315;28;20566;-45
2023/01/26 05:37:11;;;;;;;2.22;0.60;;;;;;;2.88;78.06;101617.41;4965443;28;20482;-45
2023/01/26 05:39:40;;;;;;;7.18;1.98;;;;;;;2.90;77.81;101617.50;4961520;28;20057;-46
2023/01/26 05:42:08;;;;;;;2.80;1.35;;;;;;;2.84;77.47;101607.81;4964223;28;20043;-45
2023/01/26 05:44:34;;;;;;;2.45;1.27;;;;;;;2.88;76.92;101626.75;4964774;28;20043;-45
2023/01/26 05:47:01;;;;;;;1.88;1.20;;;;;;;2.89;77.76;101621.72;4966314;28;20465;-45
2023/01/26 05:49:28;;;;;;;2.65;1.50;;;;;;;2.92;76.81;101627.00;4964874;28;20054;-46
2023/01/26 05:51:55;;;;;;;3.85;1.90;;;;;;;2.93;77.96;101632.97;4965326;28;20059;-45
2023/01/26 05:54:22;;;;;;;5.25;1.67;;;;;;;2.90;77.52;101630.28;4966989;28;20109;-46
2023/01/26 05:56:49;;;;;;;2.80;1.40;;;;;;;2.97;77.47;101627.22;4965822;28;20556;-45
2023/01/26 05:59:15;;;;;;;6.97;0.90;;;;;;;2.90;77.20;101645.66;4962753;28;20046;-48
2023/01/26 06:01:42;;;;;;;1.88;1.02;;;;;;;2.90;77.16;101635.41;4965321;28;20069;-45
2023/01/26 06:04:09;;;;;;;2.05;1.25;;;;;;;2.91;77.10;101635.47;4965302;28;20558;-45
2023/01/26 06:06:36;;;;;;;3.08;1.48;;;;;;;2.83;77.98;101639.28;4964443;28;20550;-46
2023/01/26 06:09:02;;;;;;;0.80;0.75;;;;;;;2.88;77.09;101642.09;4961665;28;20602;-46
2023/01/26 06:11:31;;;;;;;4.28;1.60;;;;;;;2.87;77.00;101648.03;4943617;28;20075;-46
2023/01/26 06:13:57;;;;;;;4.85;1.92;;;;;;;2.91;77.55;101649.97;4964143;28;20097;-46
2023/01/26 06:16:24;;;;;;;1.73;1.45;;;;;;;2.91;77.14;101648.25;4965869;28;20050;-46
2023/01/26 06:18:51;;;;;;;4.55;1.17;;;;;;;2.94;78.04;101650.13;4965201;28;20050;-46
2023/01/26 06:21:17;;;;;;;1.95;1.13;;;;;;;2.95;78.32;101645.06;4964917;28;20051;-46
2023/01/26 06:23:44;;;;;;;2.88;1.65;;;;;;;3.00;78.17;101650.44;4965535;28;20146;-46
2023/01/26 06:26:11;;;;;;;2.42;1.27;;;;;;;3.06;77.02;101650.78;4965505;28;20042;-46
2023/01/26 06:28:38;;;;;;;3.70;1.10;;;;;;;3.10;77.33;101651.81;4958184;28;20182;-49
2023/01/26 06:31:07;;;;;;;5.68;1.55;;;;;;;3.11;76.95;101657.84;4965545;28;20051;-47
2023/01/26 06:33:36;;;;;;;3.67;1.85;;;;;;;3.16;76.99;101658.94;4964242;28;20569;-47
2023/01/26 06:36:06;;;;;;;3.53;1.48;;;;;;;3.16;77.14;101661.50;4964550;28;20521;-46
2023/01/26 06:38:33;;;;;;;5.07;1.23;;;;;;;3.23;77.82;101663.59;4960531;28;20046;-47
2023/01/26 06:41:01;;;;;;;2.60;1.08;;;;;;;3.27;77.17;101655.28;4965446;28;20105;-45
2023/01/26 06:43:29;;;;;;;3.65;1.00;;;;;;;3.29;77.53;101657.94;4947269;28;20047;-47
2023/01/26 06:45:57;;;;;;;1.77;1.23;;;;;;;3.27;77.00;101657.84;4964095;28;20105;-46
2023/01/26 06:48:25;;;;;;;2.90;1.48;;;;;;;3.30;76.78;101670.81;4964270;28;20055;-47
2023/01/26 06:50:52;;;;;;;4.15;0.43;;;;;;;3.26;77.04;101684.25;4980149;28;20762;-45
2023/01/26 06:53:41;;;;;;;3.03;1.45;;;;;;;3.32;77.57;101678.59;4963191;28;20046;-46
2023/01/26 06:56:08;;;;;;;2.70;2.10;;;;;;;3.34;77.39;101677.88;4970455;28;20054;-46
2023/01/26 06:58:35;;;;;;;2.75;0.50;;;;;;;3.40;77.20;101674.75;4959679;28;20447;-47
2023/01/26 07:01:01;;;;;;;3.45;1.60;;;;;;;3.43;77.55;101691.97;4964411;28;20051;-47
2023/01/26 07:03:28;;;;;;;2.05;0.25;;;;;;;3.43;77.66;101686.84;4964495;28;20556;-45
2023/01/26 07:05:55;;;;;;;1.63;1.48;;;;;;;3.38;78.03;101683.16;4960248;28;20126;-48
2023/01/26 07:08:21;;;;;;;2.60;2.22;;;;;;;3.43;77.15;101677.47;4964588;28;20082;-48
2023/01/26 07:10:49;;;;;;;4.00;1.42;;;;;;;3.47;77.37;101675.94;4964488;28;20078;-46
2023/01/26 07:13:16;;;;;;;5.70;1.52;;;;;;;3.47;77.20;101678.50;4966124;28;20046;-46
2023/01/26 07:15:43;;;;;;;1.52;1.20;;;;;;;3.49;77.18;101681.16;4967824;28;20047;-47
2023/01/26 07:18:09;;;;;;;1.63;0.85;;;;;;;3.46;77.60;101681.88;4968398;28;20116;-45
2023/01/26 07:20:36;;;;;;;5.40;1.77;;;;;;;3.43;76.91;101690.28;4967772;28;20047;-48
2023/01/26 07:23:03;;;;;;;1.48;1.38;;;;;;;3.38;77.58;101688.28;4968122;28;20058;-44
2023/01/26 07:25:29;;;;;;;1.80;1.33;;;;;;;3.31;77.61;101682.81;4959110;28;20081;-47
2023/01/26 07:27:57;;;;;;;1.35;0.35;;;;;;;3.30;77.12;101685.28;4965347;28;20764;-46
2023/01/26 07:30:26;;;;;;;2.15;1.45;;;;;;;3.22;76.85;101682.34;4965510;28;20054;-46
2023/01/26 07:32:52;;;;;;;1.67;1.55;;;;;;;3.23;77.37;101686.66;4964338;28;20050;-48
2023/01/26 07:35:19;;;;;;;2.40;2.30;;;;;;;3.22;77.40;101687.47;4966369;28;20167;-45
2023/01/26 07:37:45;;;;;;;1.55;1.27;;;;;;;3.20;77.29;101683.91;4962892;28;20849;-45
2023/01/26 07:40:12;;;;;;;3.00;1.95;;;;;;;3.26;78.28;101679.13;4965287;28;20138;-45
2023/01/26 07:42:39;;;;;;;2.75;1.27;;;;;;;3.26;78.80;101689.38;4965467;28;20105;-45
2023/01/26 07:45:06;;;;;;;3.85;1.38;;;;;;;3.32;78.24;101689.69;4966387;28;20545;-46
2023/01/26 07:47:34;;;;;;;2.15;1.63;;;;;;;3.34;78.09;101688.13;4966772;28;20039;-47
2023/01/26 07:50:01;;;;;;;3.13;1.23;;;;;;;3.29;79.40;101692.13;4965182;28;20058;-47
2023/01/26 07:52:28;;;;;;;3.00;1.30;;;;;;;3.29;79.15;101678.41;4966238;28;20042;-48
2023/01/26 07:54:55;;;;;;;1.77;1.10;;;;;;;3.27;78.73;101680.91;4966246;28;20054;-51
2023/01/26 07:57:22;;;;;;;5.95;1.35;;;;;;;3.27;79.93;101680.91;4966464;28;20042;-46
2023/01/26 07:59:48;;;;;;;4.82;1.10;;;;;;;3.26;79.95;101674.03;4965420;28;20054;-45
2023/01/26 08:02:15;;;;;;;1.67;1.35;;;;;;;3.20;80.05;101679.69;4966353;28;20050;-46
2023/01/26 08:04:42;;;;;;;1.00;0.90;;;;;;;3.21;80.49;101675.47;4963453;28;20126;-49
2023/01/26 08:07:08;;;;;;;6.30;2.45;;;;;;;3.25;79.92;101679.94;4961494;28;20050;-48
2023/01/26 08:09:36;;;;;;;3.85;1.95;;;;;;;3.26;80.12;101679.13;4965938;28;20054;-46
2023/01/26 08:12:03;;;;;;;1.02;1.02;;;;;;;3.25;80.04;101681.63;4964769;28;20054;-46
2023/01/26 08:14:29;;;;;;;4.07;1.48;;;;;;;3.24;81.02;101687.53;4961437;28;20071;-47
2023/01/26 08:17:11;;;;;;;4.32;1.27;;;;;;;3.26;81.18;101684.25;4965518;28;20061;-49
2023/01/26 08:19:38;;;;;;;4.20;1.85;;;;;;;3.27;80.59;101696.25;4964632;28;20042;-46
2023/01/26 08:22:04;;;;;;;3.33;1.92;;;;;;;3.34;81.04;101690.69;4959633;28;20081;-45
2023/01/26 08:24:31;;;;;;;1.40;1.17;;;;;;;3.26;81.38;101704.75;4964209;28;20051;-45
2023/01/26 08:26:58;;;;;;;4.10;1.23;;;;;;;3.40;80.45;101702.94;4965100;28;20129;-48
2023/01/26 08:29:24;;;;;;;2.17;1.33;;;;;;;3.39;80.88;101700.28;4964403;28;20058;-46
2023/01/26 08:31:52;;;;;;;4.53;1.83;;;;;;;3.37;80.70;101702.75;4960886;28;20055;-47
2023/01/26 08:34:21;;;;;;;0.82;0.77;;;;;;;3.41;79.94;101714.06;4957561;28;20725;-47
2023/01/26 08:36:48;;;;;;;2.58;1.33;;;;;;;3.42;80.03;101711.59;4961749;28;20113;-46
2023/01/26 08:39:14;;;;;;;1.35;1.25;;;;;;;3.39;80.03;101715.66;4962822;28;20055;-48
2023/01/26 08:41:41;;;;;;;1.67;0.88;;;;;;;3.37;80.35;101712.16;4963131;28;20082;-45
2023/01/26 08:44:09;;;;;;;1.23;1.13;;;;;;;3.38;80.35;101708.78;4963308;28;20179;-46
2023/01/26 08:46:36;;;;;;;3.15;1.52;;;;;;;3.44;80.81;101720.22;4959368;28;20050;-48
2023/01/26 08:49:02;;;;;;;1.50;1.40;;;;;;;3.44;80.24;101719.34;4965828;28;20663;-46
2023/01/26 08:51:29;;;;;;;1.27;1.15;;;;;;;3.46;80.94;101730.56;4962712;28;20138;-49
2023/01/26 08:53:56;;;;;;;2.15;1.52;;;;;;;3.46;80.34;101733.13;4960038;28;20046;-45
2023/01/26 08:56:22;;;;;;;2.78;0.90;;;;;;;3.50;80.45;101745.28;4963157;28;20051;-48
2023/01/26 08:58:49;;;;;;;2.65;1.20;;;;;;;3.54;80.36;101742.09;4965919;28;20109;-47
2023/01/26 09:01:16;;;;;;;4.50;1.42;;;;;;;3.59;80.77;101744.91;4961112;28;20118;-46
2023/01/26 09:03:43;;;;;;;3.05;1.35;;;;;;;3.56;80.46;101745.63;4976836;28;20166;-49
2023/01/26 09:06:12;;;;;;;3.70;1.88;;;;;;;3.64;79.87;101747.72;4964407;28;20109;-46
2023/01/26 09:08:39;;;;;;;5.03;1.83;;;;;;;3.66;80.14;101758.94;4964618;28;20043;-45
2023/01/26 09:11:06;;;;;;;2.47;2.08;;;;;;;3.68;80.18;101744.53;4962598;28;20078;-45
2023/01/26 09:13:33;;;;;;;2.33;1.10;;;;;;;3.70;80.36;101753.16;4954078;28;20092;-47
2023/01/26 09:16:15;;;;;;;1.83;0.85;;;;;;;3.74;79.89;101767.91;4964577;28;20134;-48
2023/01/26 09:18:42;;;;;;;7.13;2.17;;;;;;;3.75;79.80;101749.16;4967897;28;20062;-46
2023/01/26 09:21:09;;;;;;;2.85;1.92;;;;;;;3.79;80.16;101752.78;4944163;28;20066;-46
2023/01/26 09:23:37;;;;;;;4.97;1.80;;;;;;;3.79;79.91;101748.53;4946391;28;20082;-48
2023/01/26 09:26:04;;;;;;;2.72;0.50;;;;;;;3.80;80.15;101747.72;4964416;28;20819;-48
2023/01/26 09:28:30;;;;;;;3.75;1.55;;;;;;;3.90;79.94;101755.88;4963209;28;20051;-45
2023/01/26 09:31:03;;;;;;;1.77;1.67;;;;;;;3.93;80.57;101761.19;4961923;28;20137;-45
2023/01/26 09:33:31;;;;;;;7.55;1.70;;;;;;;4.03;80.19;101763.44;4962901;28;20054;-45
2023/01/26 09:36:08;;;;;;;2.65;1.58;;;;;;;4.11;80.09;101766.38;4955314;28;20062;-48
2023/01/26 09:38:35;;;;;;;6.78;1.77;;;;;;;4.14;80.34;101765.66;4963643;28;20046;-47
2023/01/26 09:43:47;;;;;;;5.93;2.28;;;;;;;4.29;80.94;101751.03;5022198;27;20413;-47
2023/01/26 09:54:30;;;;;;;4.22;1.02;;;;;;;5.84;80.00;101754.00;5052138;27;20401;-47
2023/01/26 09:57:00;;;;;;;1.65;0.80;;;;;;;6.84;76.74;101754.72;4994468;28;20181;-48
2023/01/26 10:02:36;;;;;;;4.43;0.82;;;;;;;7.15;73.45;101777.44;4996393;27;20407;-48
2023/01/26 10:05:13;;;;;;;3.03;0.90;;;;;;;6.96;74.21;101777.53;4977421;28;20501;-47
2023/01/26 10:07:44;;;;;;;2.65;0.82;;;;;;;6.64;73.67;101768.56;4988317;28;20092;-47
2023/01/26 10:10:27;;;;;;;3.85;0.93;;;;;;;6.45;73.62;101771.19;4990017;28;20068;-46
2023/01/26 10:12:54;;;;;;;;;;;;;;;6.26;75.29;101770.41;4989510;28;20153;-51
2023/01/26 10:18:02;;;;;;;2.10;0.73;;;;;;;6.11;74.98;101780.91;5031245;27;20392;-46
2023/01/26 10:20:35;;;;;;;7.40;0.98;;;;;;;6.09;74.84;101778.28;4979219;28;20186;-47
2023/01/26 10:23:12;;;;;;;2.03;0.70;;;;;;;6.05;74.87;101776.38;4980033;28;20112;-48
2023/01/26 10:25:40;;;;;;;1.90;0.90;;;;;;;6.25;75.70;101778.94;4982355;28;20107;-45
2023/01/26 10:30:47;;;;;;;3.80;1.52;;;;;;;7.93;74.42;101780.31;5033287;27;20811;-48
2023/01/26 10:35:52;;;;;;;4.13;1.92;;;;;;;9.23;70.70;101776.88;5040455;27;20431;-47
2023/01/26 10:41:24;;;;;;;3.88;2.10;;;;;;;10.02;68.90;101786.91;5034499;27;21611;-48
2023/01/26 10:46:33;;;;;;;3.40;1.67;;;;;;;10.00;66.58;101779.94;5021371;27;20769;-48
2023/01/26 10:49:13;;;;;;;2.38;1.23;;;;;;;9.93;66.25;101791.81;5004776;28;20544;-47
2023/01/26 10:51:44;;;;;;;9.38;1.10;;;;;;;9.86;66.22;101787.31;5001369;28;20058;-47
2023/01/26 10:54:24;;;;;;;5.40;1.42;;;;;;;9.56;65.60;101780.44;5003925;28;20053;-48
2023/01/26 10:56:58;;;;;;;6.68;1.45;;;;;;;9.25;66.36;101794.19;5006820;28;20057;-48
2023/01/26 11:02:20;;;;;;;5.13;2.20;;;;;;;8.82;67.21;101808.31;5015625;27;20429;-48
2023/01/26 11:07:46;;;;;;;3.15;0.85;;;;;;;8.34;68.16;101794.63;5022688;27;20761;-49
2023/01/26 11:13:18;;;;;;;7.95;1.20;;;;;;;7.89;68.96;101787.88;5085994;27;20393;-46
2023/01/26 11:15:48;;;;;;;6.50;1.48;;;;;;;7.92;69.70;101794.06;5035371;28;20128;-47
2023/01/26 11:24:04;;;;;;;4.75;1.90;;;;;;;7.78;70.91;101784.94;5049333;27;20940;-48
2023/01/26 11:29:41;;;;;;;5.07;2.22;;;;;;;7.72;71.21;101788.16;5019896;27;20413;-46
2023/01/26 11:38:10;;;;;;;4.65;0.65;;;;;;;7.70;71.16;101788.09;4999325;28;20785;-49
2023/01/26 11:40:49;;;;;;;6.57;2.47;;;;;;;7.59;72.51;101791.97;4980195;28;20046;-47
2023/01/26 11:52:10;;;;;;;5.80;0.70;;;;;;;7.41;72.91;101793.03;5042768;27;20402;-46
2023/01/26 11:55:16;;;;;;;5.68;0.90;;;;;;;7.32;72.63;101800.41;5009551;28;20053;-47
2023/01/26 11:58:10;;;;;;;8.55;1.17;;;;;;;7.27;72.91;101781.31;5025112;28;20049;-48
2023/01/26 12:00:59;;;;;;;7.68;1.38;;;;;;;7.25;74.06;101783.84;5005364;28;20047;-47
2023/01/26 12:03:46;;;;;;;5.68;1.27;;;;;;;7.23;73.71;101779.44;5004257;28;20058;-48
2023/01/26 12:06:18;;;;;;;5.00;1.02;;;;;;;7.30;73.68;101786.59;5009272;28;20045;-48
2023/01/26 12:11:48;;;;;;;9.18;1.88;;;;;;;7.18;73.48;101782.72;5053424;27;20924;-46
2023/01/26 12:22:28;;;;;;;3.97;2.83;;;;;;;7.18;74.33;101790.44;5021119;28;20417;-48
2023/01/26 12:25:05;;;;;;;7.90;1.70;;;;;;;7.15;74.05;101787.75;4995265;28;20054;-51
2023/01/26 12:28:01;;;;;;;4.78;1.92;;;;;;;7.28;74.64;101793.38;4986766;28;20144;-48
2023/01/26 12:30:51;;;;;;;5.68;3.03;;;;;;;7.28;74.82;101788.22;4988197;28;20139;-47
2023/01/26 12:33:18;;;;;;;10.43;1.80;;;;;;;7.29;73.87;101769.34;4984595;28;20046;-46
2023/01/26 12:42:21;;;;;;;5.18;0.93;;;;;;;7.39;73.92;101766.31;5047426;28;21182;-48
2023/01/26 12:50:39;;;;;;;5.05;1.05;;;;;;;7.41;74.27;101751.81;5015794;28;20396;-47
2023/01/26 12:53:13;;;;;;;5.78;0.98;;;;;;;7.36;73.97;101758.47;5006494;28;20045;-49
2023/01/26 12:58:26;;;;;;;6.95;1.48;;;;;;;7.45;74.54;101751.09;5049739;28;20434;-47
2023/01/26 13:01:02;;;;;;;4.40;0.70;;;;;;;7.50;73.25;101745.22;5045731;28;20453;-49
2023/01/26 13:03:33;;;;;;;7.30;0.93;;;;;;;7.50;73.66;101742.66;5048669;28;20480;-47
2023/01/26 13:06:17;;;;;;;9.02;1.63;;;;;;;7.50;73.27;101747.81;5047920;28;20053;-46
2023/01/26 13:14:54;;;;;;;7.30;1.30;;;;;;;7.42;74.00;101756.13;5032475;27;20413;-47
2023/01/26 13:19:58;;;;;;;7.10;1.88;;;;;;;7.45;73.32;101745.94;5018125;27;20398;-50
2023/01/26 13:25:27;;;;;;;8.10;1.17;;;;;;;7.40;73.31;101754.31;5075090;27;20672;-48
2023/01/26 13:27:58;;;;;;;7.53;1.10;;;;;;;7.49;73.64;101758.94;5040570;28;20053;-48
2023/01/26 13:33:10;;;;;;;6.22;1.00;;;;;;;7.54;73.90;101755.69;5081048;27;20396;-48
2023/01/26 13:35:37;;;;;;;5.40;1.13;;;;;;;7.59;73.88;101753.28;5017135;28;20702;-49
2023/01/26 13:38:44;;;;;;;7.60;1.13;;;;;;;7.56;73.12;101753.16;5039492;28;20061;-47
2023/01/26 13:41:19;;;;;;;11.50;1.35;;;;;;;7.55;72.80;101754.00;5023857;28;20041;-50
2023/01/26 13:43:54;;;;;;;6.30;0.88;;;;;;;7.54;73.42;101760.00;5041534;28;20049;-49
2023/01/26 13:48:58;;;;;;;7.97;1.63;;;;;;;7.56;72.82;101753.16;5036448;27;20969;-46
2023/01/26 13:51:27;;;;;;;4.43;1.80;;;;;;;7.52;72.41;101738.41;5007529;28;20047;-46
2023/01/26 13:54:05;;;;;;;7.15;2.55;;;;;;;7.50;72.99;101737.50;5005436;28;20049;-50
2023/01/26 13:56:36;;;;;;;3.78;1.77;;;;;;;7.50;72.14;101747.81;5005968;28;20053;-48
2023/01/26 14:01:48;;;;;;;4.75;0.88;;;;;;;7.52;72.18;101761.63;5001230;28;20407;-49
2023/01/26 14:04:20;;;;;;;7.53;1.08;;;;;;;7.51;73.22;101765.03;4988704;28;20053;-49
2023/01/26 14:07:11;;;;;;;6.00;1.08;;;;;;;7.46;72.97;101751.94;5015509;28;20058;-50
2023/01/26 14:09:47;;;;;;;4.70;0.68;;;;;;;7.50;72.13;101752.97;4971457;28;20057;-48
2023/01/26 14:12:22;;;;;;;5.03;1.13;;;;;;;7.49;72.77;101753.78;4985663;28;20533;-48
2023/01/26 14:14:51;;;;;;;4.00;0.55;;;;;;;7.46;71.85;101752.84;4985822;28;20054;-47
2023/01/26 14:17:28;;;;;;;8.27;1.00;;;;;;;7.53;71.78;101753.09;4985834;28;20453;-50
2023/01/26 14:19:57;;;;;;;6.03;1.23;;;;;;;7.58;72.06;101756.69;4983832;28;20057;-47
2023/01/26 14:22:24;;;;;;;6.05;0.88;;;;;;;7.59;72.72;101750.72;4982867;28;20192;-47
2023/01/26 14:24:52;;;;;;;6.47;1.20;;;;;;;7.60;72.87;101760.19;4980636;28;20521;-50
2023/01/26 14:27:40;;;;;;;3.05;0.40;;;;;;;7.55;72.00;101766.91;4984808;28;21710;-48
2023/01/26 14:30:30;;;;;;;5.47;0.95;;;;;;;7.53;71.64;101758.25;4983944;28;20619;-49
2023/01/26 14:35:39;;;;;;;7.47;1.48;;;;;;;7.55;72.09;101772.06;5032313;27;20416;-47
2023/01/26 14:38:14;;;;;;;4.63;1.00;;;;;;;7.53;72.00;101769.41;5032530;28;20628;-48